Thurmont, MD

4:28 AM EDT on August 26, 2016 (GMT -0400)
Bought The Farm | | Change Station

Elev 453 ft 39.61 °N, 77.38 °W | Updated 2 seconds ago

Scattered Clouds
Scattered Clouds
74.6 °F
Feels Like 72 °F
N
0.0
Wind Variable Wind from North
Gusts 0.0 mph

Today
High -- | Low -- °F
--% Chance of Precip.
Yesterday
High -- | Low -- °F
Precip. -- in
Pressure 29.49 in
Visibility 10.0 miles
Clouds Few 2300 ft
Scattered Clouds 2700 ft
Heat Index 72 °F
Dew Point 73 °F
Humidity 95%
Rainfall 0.00 in
Snow Depth Not available.
6:32 AM 7:49 PM
Last Quarter, 37% visible
METAR KRSP 260754Z AUTO 32009G16KT 10SM FEW023 SCT027 24/22 A3008 RMK AO2 SLP984 T02440217 $
Pressure 29.49 in
Visibility 10.0 miles
Clouds Few 2300 ft
Scattered Clouds 2700 ft
Heat Index 72 °F
Dew Point 73 °F
Humidity 95%
Rainfall 0.00 in
Snow Depth Not available.
6:32 AM 7:49 PM
Last Quarter, 37% visible
METAR KRSP 260754Z AUTO 32009G16KT 10SM FEW023 SCT027 24/22 A3008 RMK AO2 SLP984 T02440217 $

10-Day Weather Forecast

Almanac

Astronomy

Aug. 26, 2016 Rise Set
Actual Time
Civil Twilight
Nautical Twilight
Astronomical Twilight
Moon
Length of Visible Light
Length of Day
Tomorrow will be .
, % of the Moon is Illuminated

Today's Extremes

State Highs State Lows

Community

WunderPhotos

Upload Photos

1,935,062 photos uploaded!

WunderBlog® & News

Nearby

Air Quality

  Air Quality AQ Index Pollutant
Not available.

Snow Depth

Station Depth Elevation

Earthquake Activity

City Distance Mag. Time & Date
Minimum magnitude displayed is 2.5.

Coastal Water Temperatures

Place Temperature

Stations

Nearby Weather Stations

Station Location Temp. Windchill Dew Point Humidity Wind Precip. Elev Updated Type
                   

Watches & Warnings

There are currently no watches in effect.